sensor_id;sensor_type;location;lat;lon;timestamp;pressure;altitude;pressure_sealevel;temperature;humidity
3668;BME280;24099;47.102;15.440;2023-02-12T00:00:19;98521.56;;;-1.21;100.00
3668;BME280;24099;47.102;15.440;2023-02-12T00:02:49;98530.22;;;-1.05;100.00
3668;BME280;24099;47.102;15.440;2023-02-12T00:05:16;98526.09;;;-1.09;100.00
3668;BME280;24099;47.102;15.440;2023-02-12T00:07:44;98527.94;;;-1.11;100.00
3668;BME280;24099;47.102;15.440;2023-02-12T00:10:13;98530.72;;;-1.16;100.00
3668;BME280;24099;47.102;15.440;2023-02-12T00:12:40;98538.25;;;-0.94;100.00
3668;BME280;24099;47.102;15.440;2023-02-12T00:15:08;98545.47;;;-1.18;100.00
3668;BME280;24099;47.102;15.440;2023-02-12T00:17:36;98535.75;;;-1.13;100.00
3668;BME280;24099;47.102;15.440;2023-02-12T00:20:06;98523.53;;;-1.26;100.00
3668;BME280;24099;47.102;15.440;2023-02-12T00:22:35;98533.38;;;-1.34;100.00
3668;BME280;24099;47.102;15.440;2023-02-12T00:25:04;98538.63;;;-1.36;100.00
3668;BME280;24099;47.102;15.440;2023-02-12T00:27:33;98543.41;;;-1.46;100.00
3668;BME280;24099;47.102;15.440;2023-02-12T00:30:01;98543.91;;;-1.56;100.00
3668;BME280;24099;47.102;15.440;2023-02-12T00:32:30;98550.22;;;-1.62;100.00
3668;BME280;24099;47.102;15.440;2023-02-12T00:35:01;98550.81;;;-1.57;100.00
3668;BME280;24099;47.102;15.440;2023-02-12T00:37:30;98547.03;;;-1.50;100.00
3668;BME280;24099;47.102;15.440;2023-02-12T00:39:58;98550.13;;;-1.60;100.00
3668;BME280;24099;47.102;15.440;2023-02-12T00:42:26;98549.00;;;-1.38;100.00
3668;BME280;24099;47.102;15.440;2023-02-12T00:44:53;98538.25;;;-1.46;100.00
3668;BME280;24099;47.102;15.440;2023-02-12T00:47:22;98548.84;;;-1.52;100.00
3668;BME280;24099;47.102;15.440;2023-02-12T00:49:49;98558.38;;;-1.18;100.00
3668;BME280;24099;47.102;15.440;2023-02-12T00:52:17;98553.88;;;-1.49;100.00
3668;BME280;24099;47.102;15.440;2023-02-12T00:54:46;98558.88;;;-1.46;100.00
3668;BME280;24099;47.102;15.440;2023-02-12T00:57:14;98565.25;;;-1.53;100.00
3668;BME280;24099;47.102;15.440;2023-02-12T00:59:42;98564.06;;;-1.46;100.00
3668;BME280;24099;47.102;15.440;2023-02-12T01:02:09;98560.97;;;-1.18;100.00
3668;BME280;24099;47.102;15.440;2023-02-12T01:04:37;98565.06;;;-1.31;100.00
3668;BME280;24099;47.102;15.440;2023-02-12T01:07:05;98569.03;;;-1.24;100.00
3668;BME280;24099;47.102;15.440;2023-02-12T01:09:33;98564.69;;;-1.23;100.00
3668;BME280;24099;47.102;15.440;2023-02-12T01:12:03;98555.22;;;-1.23;100.00
3668;BME280;24099;47.102;15.440;2023-02-12T01:14:30;98546.56;;;-1.05;100.00
3668;BME280;24099;47.102;15.440;2023-02-12T01:16:58;98551.19;;;-1.11;100.00
3668;BME280;24099;47.102;15.440;2023-02-12T01:19:26;98551.03;;;-1.08;100.00
3668;BME280;24099;47.102;15.440;2023-02-12T01:21:54;98557.19;;;-1.11;100.00
3668;BME280;24099;47.102;15.440;2023-02-12T01:24:21;98561.28;;;-0.89;100.00
3668;BME280;24099;47.102;15.440;2023-02-12T01:26:50;98567.91;;;-1.01;100.00
3668;BME280;24099;47.102;15.440;2023-02-12T01:29:19;98556.03;;;-0.71;100.00
3668;BME280;24099;47.102;15.440;2023-02-12T01:31:46;98543.28;;;-0.91;100.00
3668;BME280;24099;47.102;15.440;2023-02-12T01:34:15;98552.63;;;-1.06;100.00
3668;BME280;24099;47.102;15.440;2023-02-12T01:36:42;98546.38;;;-0.84;100.00
3668;BME280;24099;47.102;15.440;2023-02-12T01:39:10;98551.38;;;-0.98;100.00
3668;BME280;24099;47.102;15.440;2023-02-12T01:41:40;98556.13;;;-1.07;100.00
3668;BME280;24099;47.102;15.440;2023-02-12T01:44:13;98544.63;;;-0.66;100.00
3668;BME280;24099;47.102;15.440;2023-02-12T01:46:43;98552.97;;;-0.79;100.00
3668;BME280;24099;47.102;15.440;2023-02-12T01:49:16;98546.47;;;-1.03;100.00
3668;BME280;24099;47.102;15.440;2023-02-12T01:51:46;98538.88;;;-1.06;100.00
3668;BME280;24099;47.102;15.440;2023-02-12T01:54:19;98543.28;;;-1.08;100.00
3668;BME280;24099;47.102;15.440;2023-02-12T01:56:48;98533.56;;;-1.20;100.00
3668;BME280;24099;47.102;15.440;2023-02-12T01:59:17;98531.41;;;-1.29;100.00
3668;BME280;24099;47.102;15.440;2023-02-12T02:01:47;98542.38;;;-1.24;100.00
3668;BME280;24099;47.102;15.440;2023-02-12T02:04:17;98537.56;;;-1.32;100.00
3668;BME280;24099;47.102;15.440;2023-02-12T02:06:49;98543.97;;;-1.22;100.00
3668;BME280;24099;47.102;15.440;2023-02-12T02:09:19;98540.84;;;-1.28;100.00
3668;BME280;24099;47.102;15.440;2023-02-12T02:11:47;98545.16;;;-1.29;100.00
3668;BME280;24099;47.102;15.440;2023-02-12T02:14:41;98549.41;;;-1.28;100.00
3668;BME280;24099;47.102;15.440;2023-02-12T02:17:46;98538.72;;;-1.20;100.00
3668;BME280;24099;47.102;15.440;2023-02-12T02:26:12;98548.22;;;-1.21;100.00
3668;BME280;24099;47.102;15.440;2023-02-12T02:28:57;98547.66;;;-1.45;100.00
3668;BME280;24099;47.102;15.440;2023-02-12T02:31:33;98543.47;;;-1.47;100.00
3668;BME280;24099;47.102;15.440;2023-02-12T02:34:10;98553.88;;;-1.49;100.00
3668;BME280;24099;47.102;15.440;2023-02-12T02:36:45;98571.69;;;-1.61;100.00
3668;BME280;24099;47.102;15.440;2023-02-12T02:39:18;98573.97;;;-1.55;100.00
3668;BME280;24099;47.102;15.440;2023-02-12T02:41:54;98581.44;;;-1.49;100.00
3668;BME280;24099;47.102;15.440;2023-02-12T02:44:27;98568.31;;;-1.45;100.00
3668;BME280;24099;47.102;15.440;2023-02-12T02:46:57;98571.19;;;-1.51;100.00
3668;BME280;24099;47.102;15.440;2023-02-12T02:49:30;98561.38;;;-1.61;100.00
3668;BME280;24099;47.102;15.440;2023-02-12T02:52:04;98569.28;;;-1.47;100.00
3668;BME280;24099;47.102;15.440;2023-02-12T02:54:36;98566.91;;;-1.52;100.00
3668;BME280;24099;47.102;15.440;2023-02-12T02:57:09;98572.94;;;-1.70;100.00
3668;BME280;24099;47.102;15.440;2023-02-12T02:59:44;98577.06;;;-1.66;100.00
3668;BME280;24099;47.102;15.440;2023-02-12T03:02:19;98580.69;;;-1.70;100.00
3668;BME280;24099;47.102;15.440;2023-02-12T03:04:53;98577.19;;;-1.50;100.00
3668;BME280;24099;47.102;15.440;2023-02-12T03:07:24;98576.03;;;-1.62;100.00
3668;BME280;24099;47.102;15.440;2023-02-12T03:09:57;98565.91;;;-1.66;100.00
3668;BME280;24099;47.102;15.440;2023-02-12T03:12:30;98575.19;;;-1.81;100.00
3668;BME280;24099;47.102;15.440;2023-02-12T03:15:05;98577.75;;;-1.62;100.00
3668;BME280;24099;47.102;15.440;2023-02-12T03:17:39;98574.09;;;-1.58;100.00
3668;BME280;24099;47.102;15.440;2023-02-12T03:20:13;98577.84;;;-1.83;100.00
3668;BME280;24099;47.102;15.440;2023-02-12T03:22:48;98582.66;;;-1.94;100.00
3668;BME280;24099;47.102;15.440;2023-02-12T03:25:20;98576.78;;;-1.79;100.00
3668;BME280;24099;47.102;15.440;2023-02-12T03:27:54;98587.03;;;-1.77;100.00
3668;BME280;24099;47.102;15.440;2023-02-12T03:30:30;98590.38;;;-1.94;100.00
3668;BME280;24099;47.102;15.440;2023-02-12T03:33:13;98588.25;;;-2.03;100.00
3668;BME280;24099;47.102;15.440;2023-02-12T03:35:50;98591.34;;;-1.96;100.00
3668;BME280;24099;47.102;15.440;2023-02-12T03:38:35;98589.75;;;-1.99;100.00
3668;BME280;24099;47.102;15.440;2023-02-12T03:41:08;98597.75;;;-2.24;100.00
3668;BME280;24099;47.102;15.440;2023-02-12T03:43:46;98600.00;;;-1.97;100.00
3668;BME280;24099;47.102;15.440;2023-02-12T03:46:21;98601.00;;;-2.00;100.00
3668;BME280;24099;47.102;15.440;2023-02-12T03:48:59;98601.75;;;-1.98;100.00
3668;BME280;24099;47.102;15.440;2023-02-12T03:51:33;98615.00;;;-2.05;100.00
3668;BME280;24099;47.102;15.440;2023-02-12T03:54:03;98616.69;;;-2.04;100.00
3668;BME280;24099;47.102;15.440;2023-02-12T03:56:36;98612.84;;;-1.96;100.00
3668;BME280;24099;47.102;15.440;2023-02-12T03:59:05;98629.31;;;-2.19;100.00
3668;BME280;24099;47.102;15.440;2023-02-12T04:01:33;98618.09;;;-2.18;100.00
3668;BME280;24099;47.102;15.440;2023-02-12T04:04:05;98630.81;;;-2.33;100.00
3668;BME280;24099;47.102;15.440;2023-02-12T04:06:33;98628.22;;;-2.13;100.00
3668;BME280;24099;47.102;15.440;2023-02-12T04:09:04;98630.03;;;-2.15;100.00
3668;BME280;24099;47.102;15.440;2023-02-12T04:11:40;98632.91;;;-2.21;100.00
3668;BME280;24099;47.102;15.440;2023-02-12T04:14:28;98640.28;;;-2.14;100.00
3668;BME280;24099;47.102;15.440;2023-02-12T04:17:02;98644.03;;;-1.63;100.00
3668;BME280;24099;47.102;15.440;2023-02-12T04:19:39;98635.66;;;-2.26;100.00
3668;BME280;24099;47.102;15.440;2023-02-12T04:22:17;98643.66;;;-2.32;100.00
3668;BME280;24099;47.102;15.440;2023-02-12T04:24:53;98637.47;;;-2.28;100.00
3668;BME280;24099;47.102;15.440;2023-02-12T04:27:28;98642.63;;;-2.48;100.00
3668;BME280;24099;47.102;15.440;2023-02-12T04:30:06;98636.91;;;-2.55;100.00
3668;BME280;24099;47.102;15.440;2023-02-12T04:32:42;98641.09;;;-2.52;100.00
3668;BME280;24099;47.102;15.440;2023-02-12T04:35:17;98637.56;;;-2.50;100.00
3668;BME280;24099;47.102;15.440;2023-02-12T04:37:50;98643.41;;;-2.46;100.00
3668;BME280;24099;47.102;15.440;2023-02-12T04:40:20;98641.22;;;-2.55;100.00
3668;BME280;24099;47.102;15.440;2023-02-12T04:42:49;98645.41;;;-2.53;100.00
3668;BME280;24099;47.102;15.440;2023-02-12T04:45:21;98656.59;;;-2.33;100.00
3668;BME280;24099;47.102;15.440;2023-02-12T04:47:50;98644.81;;;-2.39;100.00
3668;BME280;24099;47.102;15.440;2023-02-12T04:50:20;98632.81;;;-2.20;100.00
3668;BME280;24099;47.102;15.440;2023-02-12T04:52:47;98647.38;;;-2.39;100.00
3668;BME280;24099;47.102;15.440;2023-02-12T04:55:15;98647.84;;;-2.29;100.00
3668;BME280;24099;47.102;15.440;2023-02-12T04:57:43;98665.97;;;-2.31;100.00
3668;BME280;24099;47.102;15.440;2023-02-12T05:00:12;98667.56;;;-2.28;100.00
3668;BME280;24099;47.102;15.440;2023-02-12T05:02:40;98659.78;;;-2.27;100.00
3668;BME280;24099;47.102;15.440;2023-02-12T05:05:08;98659.88;;;-2.10;100.00
3668;BME280;24099;47.102;15.440;2023-02-12T05:07:37;98660.34;;;-2.20;100.00
3668;BME280;24099;47.102;15.440;2023-02-12T05:10:06;98663.41;;;-2.12;100.00
3668;BME280;24099;47.102;15.440;2023-02-12T05:12:34;98674.50;;;-2.10;100.00
3668;BME280;24099;47.102;15.440;2023-02-12T05:15:01;98675.41;;;-2.11;100.00
3668;BME280;24099;47.102;15.440;2023-02-12T05:17:29;98684.44;;;-2.01;100.00
3668;BME280;24099;47.102;15.440;2023-02-12T05:19:57;98683.47;;;-1.80;100.00
3668;BME280;24099;47.102;15.440;2023-02-12T05:22:25;98684.66;;;-1.87;100.00
3668;BME280;24099;47.102;15.440;2023-02-12T05:24:54;98689.47;;;-1.79;100.00
3668;BME280;24099;47.102;15.440;2023-02-12T05:27:21;98688.44;;;-1.75;100.00
3668;BME280;24099;47.102;15.440;2023-02-12T05:29:49;98682.94;;;-1.86;100.00
3668;BME280;24099;47.102;15.440;2023-02-12T05:32:17;98689.25;;;-1.93;100.00
3668;BME280;24099;47.102;15.440;2023-02-12T05:34:44;98699.50;;;-1.92;100.00
3668;BME280;24099;47.102;15.440;2023-02-12T05:37:12;98709.59;;;-1.67;100.00
3668;BME280;24099;47.102;15.440;2023-02-12T05:39:40;98703.91;;;-1.75;100.00
3668;BME280;24099;47.102;15.440;2023-02-12T05:42:09;98710.97;;;-1.79;100.00
3668;BME280;24099;47.102;15.440;2023-02-12T05:44:36;98711.22;;;-1.64;100.00
3668;BME280;24099;47.102;15.440;2023-02-12T05:47:04;98715.72;;;-1.69;100.00
3668;BME280;24099;47.102;15.440;2023-02-12T05:49:32;98713.66;;;-1.61;100.00
3668;BME280;24099;47.102;15.440;2023-02-12T05:51:59;98715.53;;;-1.65;100.00
3668;BME280;24099;47.102;15.440;2023-02-12T05:54:29;98717.06;;;-1.61;100.00
3668;BME280;24099;47.102;15.440;2023-02-12T05:56:57;98719.88;;;-1.28;100.00
3668;BME280;24099;47.102;15.440;2023-02-12T05:59:26;98723.50;;;-1.32;100.00
3668;BME280;24099;47.102;15.440;2023-02-12T06:01:54;98724.59;;;-1.38;100.00
3668;BME280;24099;47.102;15.440;2023-02-12T06:04:24;98733.63;;;-1.46;100.00
3668;BME280;24099;47.102;15.440;2023-02-12T06:06:54;98743.81;;;-1.43;100.00
3668;BME280;24099;47.102;15.440;2023-02-12T06:09:22;98748.47;;;-1.32;100.00
3668;BME280;24099;47.102;15.440;2023-02-12T06:11:50;98744.50;;;-1.21;100.00
3668;BME280;24099;47.102;15.440;2023-02-12T06:14:19;98754.41;;;-1.30;100.00
3668;BME280;24099;47.102;15.440;2023-02-12T06:16:49;98750.84;;;-1.28;100.00
3668;BME280;24099;47.102;15.440;2023-02-12T06:19:18;98750.78;;;-1.26;100.00
3668;BME280;24099;47.102;15.440;2023-02-12T06:21:46;98761.13;;;-1.26;100.00
3668;BME280;24099;47.102;15.440;2023-02-12T06:24:15;98766.16;;;-1.23;100.00
3668;BME280;24099;47.102;15.440;2023-02-12T06:26:48;98769.97;;;-1.13;100.00
3668;BME280;24099;47.102;15.440;2023-02-12T06:29:22;98771.38;;;-1.25;100.00
3668;BME280;24099;47.102;15.440;2023-02-12T06:31:51;98773.97;;;-1.25;100.00
3668;BME280;24099;47.102;15.440;2023-02-12T06:34:20;98776.88;;;-1.14;100.00
3668;BME280;24099;47.102;15.440;2023-02-12T06:36:48;98786.38;;;-1.14;100.00
3668;BME280;24099;47.102;15.440;2023-02-12T06:39:16;98786.38;;;-1.14;100.00
3668;BME280;24099;47.102;15.440;2023-02-12T06:41:44;98789.03;;;-1.16;100.00
3668;BME280;24099;47.102;15.440;2023-02-12T06:44:12;98794.63;;;-1.06;100.00
3668;BME280;24099;47.102;15.440;2023-02-12T06:46:43;98803.69;;;-0.97;100.00
3668;BME280;24099;47.102;15.440;2023-02-12T06:49:14;98806.00;;;-0.91;100.00
3668;BME280;24099;47.102;15.440;2023-02-12T06:51:42;98815.31;;;-0.51;100.00
3668;BME280;24099;47.102;15.440;2023-02-12T06:54:13;98809.84;;;-0.62;100.00
3668;BME280;24099;47.102;15.440;2023-02-12T06:56:44;98822.41;;;-0.74;100.00
3668;BME280;24099;47.102;15.440;2023-02-12T06:59:14;98827.56;;;-0.55;100.00
3668;BME280;24099;47.102;15.440;2023-02-12T07:01:47;98825.19;;;-0.41;100.00
3668;BME280;24099;47.102;15.440;2023-02-12T07:04:16;98817.09;;;-0.35;100.00
3668;BME280;24099;47.102;15.440;2023-02-12T07:06:45;98825.56;;;-0.31;100.00
3668;BME280;24099;47.102;15.440;2023-02-12T07:09:13;98824.34;;;-0.41;100.00
3668;BME280;24099;47.102;15.440;2023-02-12T07:11:41;98827.53;;;-0.36;100.00
3668;BME280;24099;47.102;15.440;2023-02-12T07:14:16;98832.47;;;-0.31;100.00
3668;BME280;24099;47.102;15.440;2023-02-12T07:16:43;98836.69;;;-0.29;100.00
3668;BME280;24099;47.102;15.440;2023-02-12T07:19:14;98835.63;;;-0.25;100.00
3668;BME280;24099;47.102;15.440;2023-02-12T07:21:44;98827.41;;;-0.16;100.00
3668;BME280;24099;47.102;15.440;2023-02-12T07:24:13;98839.06;;;-0.07;100.00
3668;BME280;24099;47.102;15.440;2023-02-12T07:26:41;98838.69;;;0.00;100.00
3668;BME280;24099;47.102;15.440;2023-02-12T07:29:11;98841.72;;;-0.09;100.00
3668;BME280;24099;47.102;15.440;2023-02-12T07:31:42;98836.56;;;-0.09;100.00
3668;BME280;24099;47.102;15.440;2023-02-12T07:34:12;98841.25;;;0.00;100.00
3668;BME280;24099;47.102;15.440;2023-02-12T07:36:41;98843.34;;;-0.06;100.00
3668;BME280;24099;47.102;15.440;2023-02-12T07:39:10;98842.78;;;0.05;100.00
3668;BME280;24099;47.102;15.440;2023-02-12T07:41:38;98836.19;;;0.16;100.00
3668;BME280;24099;47.102;15.440;2023-02-12T07:44:09;98832.28;;;0.25;100.00
3668;BME280;24099;47.102;15.440;2023-02-12T07:46:38;98841.22;;;0.37;100.00
3668;BME280;24099;47.102;15.440;2023-02-12T07:49:07;98832.28;;;0.42;100.00
3668;BME280;24099;47.102;15.440;2023-02-12T07:51:36;98830.22;;;0.49;100.00
3668;BME280;24099;47.102;15.440;2023-02-12T07:54:05;98835.31;;;0.83;100.00
3668;BME280;24099;47.102;15.440;2023-02-12T07:56:37;98834.94;;;0.91;100.00
3668;BME280;24099;47.102;15.440;2023-02-12T07:59:06;98833.44;;;1.02;100.00
3668;BME280;24099;47.102;15.440;2023-02-12T08:01:36;98827.78;;;1.12;100.00
3668;BME280;24099;47.102;15.440;2023-02-12T08:04:07;98829.22;;;1.17;100.00
3668;BME280;24099;47.102;15.440;2023-02-12T08:06:36;98831.22;;;1.28;100.00
3668;BME280;24099;47.102;15.440;2023-02-12T08:09:07;98827.44;;;1.33;100.00
3668;BME280;24099;47.102;15.440;2023-02-12T08:11:36;98828.75;;;1.72;100.00
3668;BME280;24099;47.102;15.440;2023-02-12T08:14:05;98833.44;;;1.81;100.00
3668;BME280;24099;47.102;15.440;2023-02-12T08:16:36;98824.56;;;1.69;100.00
3668;BME280;24099;47.102;15.440;2023-02-12T08:19:05;98823.72;;;2.15;100.00
3668;BME280;24099;47.102;15.440;2023-02-12T08:21:34;98815.16;;;1.98;100.00
3668;BME280;24099;47.102;15.440;2023-02-12T08:24:02;98823.94;;;1.96;100.00
3668;BME280;24099;47.102;15.440;2023-02-12T08:26:32;98823.94;;;2.26;100.00
3668;BME280;24099;47.102;15.440;2023-02-12T08:29:02;98825.41;;;2.16;100.00
3668;BME280;24099;47.102;15.440;2023-02-12T08:31:32;98827.16;;;2.15;100.00
3668;BME280;24099;47.102;15.440;2023-02-12T08:33:59;98817.97;;;2.54;100.00
3668;BME280;24099;47.102;15.440;2023-02-12T08:36:29;98821.34;;;2.40;100.00
3668;BME280;24099;47.102;15.440;2023-02-12T08:38:58;98827.38;;;2.40;100.00
3668;BME280;24099;47.102;15.440;2023-02-12T08:41:27;98819.19;;;2.76;100.00
3668;BME280;24099;47.102;15.440;2023-02-12T08:43:58;98815.41;;;3.91;100.00
3668;BME280;24099;47.102;15.440;2023-02-12T08:46:28;98811.34;;;4.00;100.00
3668;BME280;24099;47.102;15.440;2023-02-12T08:48:57;98803.69;;;4.24;100.00
3668;BME280;24099;47.102;15.440;2023-02-12T08:51:27;98809.19;;;3.94;100.00
3668;BME280;24099;47.102;15.440;2023-02-12T08:53:59;98816.84;;;5.11;100.00
3668;BME280;24099;47.102;15.440;2023-02-12T08:56:29;98810.69;;;5.48;100.00
3668;BME280;24099;47.102;15.440;2023-02-12T08:59:01;98810.38;;;5.53;100.00
3668;BME280;24099;47.102;15.440;2023-02-12T09:01:31;98818.22;;;4.91;100.00
3668;BME280;24099;47.102;15.440;2023-02-12T09:03:59;98819.59;;;4.59;100.00
3668;BME280;24099;47.102;15.440;2023-02-12T09:06:32;98830.56;;;4.11;100.00
3668;BME280;24099;47.102;15.440;2023-02-12T09:09:02;98826.28;;;3.98;100.00
3668;BME280;24099;47.102;15.440;2023-02-12T09:11:32;98834.19;;;3.96;100.00
3668;BME280;24099;47.102;15.440;2023-02-12T09:14:04;98835.69;;;3.86;100.00
3668;BME280;24099;47.102;15.440;2023-02-12T09:16:33;98830.09;;;3.92;100.00
3668;BME280;24099;47.102;15.440;2023-02-12T09:19:02;98835.50;;;4.16;100.00
3668;BME280;24099;47.102;15.440;2023-02-12T09:21:29;98843.13;;;4.44;100.00
3668;BME280;24099;47.102;15.440;2023-02-12T09:23:57;98839.41;;;4.48;100.00
3668;BME280;24099;47.102;15.440;2023-02-12T09:26:26;98842.06;;;5.23;100.00
3668;BME280;24099;47.102;15.440;2023-02-12T09:28:54;98844.59;;;5.85;100.00
3668;BME280;24099;47.102;15.440;2023-02-12T09:31:28;98844.34;;;6.25;100.00
3668;BME280;24099;47.102;15.440;2023-02-12T09:33:58;98853.09;;;6.47;100.00
3668;BME280;24099;47.102;15.440;2023-02-12T09:36:29;98840.81;;;7.05;100.00
3668;BME280;24099;47.102;15.440;2023-02-12T09:38:57;98847.09;;;7.58;100.00
3668;BME280;24099;47.102;15.440;2023-02-12T09:44:21;98846.34;;;7.79;100.00
3668;BME280;24099;47.102;15.440;2023-02-12T09:46:58;98842.50;;;7.83;97.74
3668;BME280;24099;47.102;15.440;2023-02-12T09:49:42;98842.56;;;8.04;91.18
3668;BME280;24099;47.102;15.440;2023-02-12T09:52:17;98845.84;;;8.49;88.88
3668;BME280;24099;47.102;15.440;2023-02-12T09:54:46;98846.81;;;8.16;85.64
3668;BME280;24099;47.102;15.440;2023-02-12T09:57:18;98848.56;;;9.10;83.62
3668;BME280;24099;47.102;15.440;2023-02-12T09:59:50;98839.69;;;10.10;78.05
3668;BME280;24099;47.102;15.440;2023-02-12T10:02:21;98847.22;;;9.55;76.89
3668;BME280;24099;47.102;15.440;2023-02-12T10:04:51;98847.41;;;9.83;78.02
3668;BME280;24099;47.102;15.440;2023-02-12T10:07:35;98852.31;;;10.16;78.87
3668;BME280;24099;47.102;15.440;2023-02-12T10:10:25;98848.59;;;10.19;72.81
3668;BME280;24099;47.102;15.440;2023-02-12T10:12:59;98854.28;;;9.64;71.75
3668;BME280;24099;47.102;15.440;2023-02-12T10:15:34;98851.38;;;9.67;72.70
3668;BME280;24099;47.102;15.440;2023-02-12T10:18:43;98849.63;;;9.87;70.60
3668;BME280;24099;47.102;15.440;2023-02-12T10:21:22;98843.28;;;10.67;70.13
3668;BME280;24099;47.102;15.440;2023-02-12T10:24:04;98850.06;;;10.02;66.25
3668;BME280;24099;47.102;15.440;2023-02-12T10:26:38;98847.09;;;9.66;67.14
3668;BME280;24099;47.102;15.440;2023-02-12T10:29:12;98849.97;;;10.23;65.10
3668;BME280;24099;47.102;15.440;2023-02-12T10:31:48;98851.22;;;10.28;64.88
3668;BME280;24099;47.102;15.440;2023-02-12T10:34:21;98846.38;;;10.53;64.64
3668;BME280;24099;47.102;15.440;2023-02-12T10:36:51;98847.97;;;10.83;64.64
3668;BME280;24099;47.102;15.440;2023-02-12T10:39:23;98842.56;;;11.21;62.13
3668;BME280;24099;47.102;15.440;2023-02-12T10:41:55;98847.44;;;10.60;63.62
3668;BME280;24099;47.102;15.440;2023-02-12T10:44:25;98835.25;;;11.52;63.55
3668;BME280;24099;47.102;15.440;2023-02-12T10:46:53;98835.56;;;11.77;62.21
3668;BME280;24099;47.102;15.440;2023-02-12T10:49:23;98829.03;;;11.98;63.52
3668;BME280;24099;47.102;15.440;2023-02-12T10:52:10;98829.22;;;12.05;63.72
3668;BME280;24099;47.102;15.440;2023-02-12T10:54:41;98831.13;;;12.13;65.10
3668;BME280;24099;47.102;15.440;2023-02-12T10:57:19;98817.66;;;12.85;62.29
3668;BME280;24099;47.102;15.440;2023-02-12T10:59:51;98822.13;;;12.85;62.05
3668;BME280;24099;47.102;15.440;2023-02-12T11:02:25;98817.09;;;12.73;62.51
3668;BME280;24099;47.102;15.440;2023-02-12T11:04:55;98810.47;;;12.08;62.32
3668;BME280;24099;47.102;15.440;2023-02-12T11:07:25;98812.53;;;12.58;61.84
3668;BME280;24099;47.102;15.440;2023-02-12T11:09:55;98811.44;;;12.94;60.96
3668;BME280;24099;47.102;15.440;2023-02-12T11:12:31;98811.91;;;12.90;61.13
3668;BME280;24099;47.102;15.440;2023-02-12T11:15:03;98806.50;;;13.17;63.06
3668;BME280;24099;47.102;15.440;2023-02-12T11:17:36;98803.84;;;13.67;62.02
3668;BME280;24099;47.102;15.440;2023-02-12T11:20:21;98810.72;;;13.36;61.05
3668;BME280;24099;47.102;15.440;2023-02-12T11:22:54;98807.66;;;12.71;61.18
3668;BME280;24099;47.102;15.440;2023-02-12T11:25:24;98800.44;;;13.33;61.30
3668;BME280;24099;47.102;15.440;2023-02-12T11:28:00;98808.34;;;12.73;59.30
3668;BME280;24099;47.102;15.440;2023-02-12T11:30:29;98797.78;;;12.99;61.52
3668;BME280;24099;47.102;15.440;2023-02-12T11:33:15;98794.63;;;13.88;59.94
3668;BME280;24099;47.102;15.440;2023-02-12T11:35:56;98816.09;;;13.00;62.23
3668;BME280;24099;47.102;15.440;2023-02-12T11:38:29;98807.63;;;13.57;61.52
3668;BME280;24099;47.102;15.440;2023-02-12T11:41:07;98801.06;;;13.69;58.73
3668;BME280;24099;47.102;15.440;2023-02-12T11:43:45;98803.78;;;13.43;60.42
3668;BME280;24099;47.102;15.440;2023-02-12T11:46:20;98808.00;;;12.50;61.88
3668;BME280;24099;47.102;15.440;2023-02-12T11:48:50;98821.16;;;12.42;61.76
3668;BME280;24099;47.102;15.440;2023-02-12T11:51:21;98813.19;;;12.60;64.07
3668;BME280;24099;47.102;15.440;2023-02-12T11:53:56;98792.97;;;11.89;63.56
3668;BME280;24099;47.102;15.440;2023-02-12T11:56:25;98797.47;;;12.32;64.87
3668;BME280;24099;47.102;15.440;2023-02-12T11:59:23;98787.75;;;12.85;63.41
3668;BME280;24099;47.102;15.440;2023-02-12T12:01:58;98803.97;;;12.20;62.98
3668;BME280;24099;47.102;15.440;2023-02-12T12:04:31;98794.25;;;12.03;63.02
3668;BME280;24099;47.102;15.440;2023-02-12T12:07:06;98797.56;;;12.23;63.20
3668;BME280;24099;47.102;15.440;2023-02-12T12:09:42;98786.06;;;12.50;62.66
3668;BME280;24099;47.102;15.440;2023-02-12T12:12:17;98801.00;;;12.59;62.92
3668;BME280;24099;47.102;15.440;2023-02-12T12:14:49;98791.09;;;12.87;62.55
3668;BME280;24099;47.102;15.440;2023-02-12T12:17:43;98766.78;;;13.51;61.97
3668;BME280;24099;47.102;15.440;2023-02-12T12:20:32;98776.47;;;12.49;62.04
3668;BME280;24099;47.102;15.440;2023-02-12T12:23:08;98767.88;;;13.40;61.29
3668;BME280;24099;47.102;15.440;2023-02-12T12:25:41;98769.34;;;13.01;61.77
3668;BME280;24099;47.102;15.440;2023-02-12T12:28:25;98768.38;;;13.36;62.24
3668;BME280;24099;47.102;15.440;2023-02-12T12:31:05;98763.59;;;13.05;61.72
3668;BME280;24099;47.102;15.440;2023-02-12T12:33:40;98762.06;;;12.95;62.12
3668;BME280;24099;47.102;15.440;2023-02-12T12:39:25;98765.22;;;12.03;64.45
3668;BME280;24099;47.102;15.440;2023-02-12T12:42:18;98761.59;;;12.04;66.24
3668;BME280;24099;47.102;15.440;2023-02-12T12:45:05;98763.09;;;12.24;63.62
3668;BME280;24099;47.102;15.440;2023-02-12T12:47:44;98756.47;;;11.39;65.08
3668;BME280;24099;47.102;15.440;2023-02-12T12:50:41;98765.00;;;11.33;64.95
3668;BME280;24099;47.102;15.440;2023-02-12T12:53:36;98755.59;;;11.21;65.01
3668;BME280;24099;47.102;15.440;2023-02-12T12:56:30;98757.50;;;11.29;64.62
3668;BME280;24099;47.102;15.440;2023-02-12T12:59:32;98744.09;;;11.67;64.49
3668;BME280;24099;47.102;15.440;2023-02-12T13:05:23;98746.56;;;11.24;65.69
3668;BME280;24099;47.102;15.440;2023-02-12T13:08:05;98743.41;;;12.01;64.04
3668;BME280;24099;47.102;15.440;2023-02-12T13:10:42;98747.09;;;11.55;65.29
3668;BME280;24099;47.102;15.440;2023-02-12T13:13:23;98752.72;;;11.42;65.13
3668;BME280;24099;47.102;15.440;2023-02-12T13:15:58;98749.22;;;12.04;64.02
3668;BME280;24099;47.102;15.440;2023-02-12T13:18:45;98742.13;;;11.52;63.18
3668;BME280;24099;47.102;15.440;2023-02-12T13:21:21;98748.78;;;11.73;65.37
3668;BME280;24099;47.102;15.440;2023-02-12T13:23:55;98749.44;;;11.76;62.90
3668;BME280;24099;47.102;15.440;2023-02-12T13:26:31;98747.66;;;11.31;64.23
3668;BME280;24099;47.102;15.440;2023-02-12T13:29:07;98757.38;;;11.30;64.82
3668;BME280;24099;47.102;15.440;2023-02-12T13:31:46;98745.16;;;11.29;66.24
3668;BME280;24099;47.102;15.440;2023-02-12T13:34:15;98751.47;;;10.91;64.32
3668;BME280;24099;47.102;15.440;2023-02-12T13:36:45;98737.19;;;11.39;64.79